Time;durP1;ratioP1;P1;durP2;ratioP2;P2;SDS_P1;SDS_P2;PMS_P1;PMS_P2;Temp;Humidity;BMP_temperature;BMP_pressure;BME280_temperature;BME280_humidity;BME280_pressure;Samples;Min_cycle;Max_cycle;Signal;HPM_P1;HPM_P2
2022/07/29 00:02:43;;;;;;;4.43;4.00;;;;;;;;;;10157171;28;20074;-59
2022/07/29 00:07:41;;;;;;;3.60;3.30;;;;;;;;;;10154362;28;20486;-57
2022/07/29 00:12:41;;;;;;;4.05;3.67;;;;;;;;;;10152899;28;20070;-58
2022/07/29 00:17:39;;;;;;;5.45;3.45;;;;;;;;;;10152959;28;20070;-57
2022/07/29 00:22:38;;;;;;;5.95;3.35;;;;;;;;;;10152592;28;20089;-57
2022/07/29 00:27:36;;;;;;;4.18;3.45;;;;;;;;;;10151224;28;20066;-58
2022/07/29 00:32:36;;;;;;;3.47;3.08;;;;;;;;;;10155967;28;20077;-58
2022/07/29 00:37:34;;;;;;;7.68;2.97;;;;;;;;;;10155313;28;20066;-57
2022/07/29 00:42:41;;;;;;;3.38;2.80;;;;;;;;;;10154946;28;20427;-57
2022/07/29 00:47:41;;;;;;;2.70;2.40;;;;;;;;;;10154871;28;20521;-57
2022/07/29 00:52:40;;;;;;;3.42;3.13;;;;;;;;;;10155201;28;20504;-57
2022/07/29 00:57:39;;;;;;;4.40;2.53;;;;;;;;;;10155547;28;20074;-58
2022/07/29 01:02:37;;;;;;;3.35;3.00;;;;;;;;;;10155266;28;20051;-57
2022/07/29 01:07:38;;;;;;;6.35;2.67;;;;;;;;;;10155555;28;20077;-57
2022/07/29 01:12:37;;;;;;;4.05;2.72;;;;;;;;;;10154375;28;20070;-58
2022/07/29 01:17:38;;;;;;;3.30;3.00;;;;;;;;;;10154704;28;20061;-58
2022/07/29 01:23:19;;;;;;;3.85;2.58;;;;;;;;;;10155422;28;20047;-58
2022/07/29 01:28:35;;;;;;;15.38;3.28;;;;;;;;;;10056169;28;20504;-57
2022/07/29 01:33:51;;;;;;;6.28;2.97;;;;;;;;;;10143045;28;20085;-57
2022/07/29 01:38:54;;;;;;;5.68;3.83;;;;;;;;;;10153849;28;20086;-59
2022/07/29 01:43:52;;;;;;;;;;;;;;;;;;10156726;28;20049;-59
2022/07/29 01:48:55;;;;;;;5.22;3.15;;;;;;;;;;10154745;28;19929;-59
2022/07/29 01:53:56;;;;;;;5.93;3.30;;;;;;;;;;10162278;28;20047;-59
2022/07/29 01:58:55;;;;;;;3.55;3.17;;;;;;;;;;10161851;28;20082;-59
2022/07/29 02:03:57;;;;;;;4.63;3.45;;;;;;;;;;10161109;28;20081;-58
2022/07/29 02:08:56;;;;;;;3.50;3.20;;;;;;;;;;10161070;28;20057;-59
2022/07/29 02:13:57;;;;;;;5.82;3.45;;;;;;;;;;10161098;28;20077;-59
2022/07/29 02:18:58;;;;;;;3.83;3.35;;;;;;;;;;10160628;28;20094;-59
2022/07/29 02:24:00;;;;;;;3.40;3.10;;;;;;;;;;10160733;28;20534;-59
2022/07/29 02:28:58;;;;;;;3.00;2.60;;;;;;;;;;10160679;28;20077;-59
2022/07/29 02:33:59;;;;;;;3.08;2.45;;;;;;;;;;10160105;28;20070;-59
2022/07/29 02:39:00;;;;;;;4.32;3.05;;;;;;;;;;10159841;28;20081;-59
2022/07/29 02:44:02;;;;;;;3.85;2.92;;;;;;;;;;10160009;28;20057;-59
2022/07/29 02:49:06;;;;;;;5.72;3.80;;;;;;;;;;10159097;28;20051;-59
2022/07/29 02:54:07;;;;;;;10.05;4.90;;;;;;;;;;10159120;28;20072;-59
2022/07/29 02:59:08;;;;;;;8.18;5.18;;;;;;;;;;10158551;28;20480;-59
2022/07/29 03:04:09;;;;;;;9.40;5.85;;;;;;;;;;10158205;28;20084;-59
2022/07/29 03:09:08;;;;;;;5.22;4.57;;;;;;;;;;10159050;28;20046;-59
2022/07/29 03:14:10;;;;;;;9.85;5.07;;;;;;;;;;10158921;28;20046;-59
2022/07/29 03:19:11;;;;;;;6.40;4.50;;;;;;;;;;10157407;28;20093;-60
2022/07/29 03:24:09;;;;;;;7.28;4.68;;;;;;;;;;10172146;28;20071;-59
2022/07/29 03:29:08;;;;;;;10.52;5.47;;;;;;;;;;10160180;28;20077;-59
2022/07/29 03:34:11;;;;;;;11.50;8.25;;;;;;;;;;10178982;28;20266;-60
2022/07/29 03:39:11;;;;;;;10.20;4.80;;;;;;;;;;10186894;28;20522;-59
2022/07/29 03:44:09;;;;;;;8.55;4.32;;;;;;;;;;10193309;28;20084;-60
2022/07/29 03:49:09;;;;;;;6.10;4.20;;;;;;;;;;10165606;28;20069;-59
2022/07/29 03:54:09;;;;;;;8.15;6.85;;;;;;;;;;10176563;28;20081;-59
2022/07/29 03:59:08;;;;;;;6.90;3.90;;;;;;;;;;10183926;28;20077;-59
2022/07/29 04:04:06;;;;;;;3.60;3.30;;;;;;;;;;10171390;28;20073;-60
2022/07/29 04:09:04;;;;;;;4.20;3.25;;;;;;;;;;10172370;28;20589;-59
2022/07/29 04:14:08;;;;;;;3.28;2.97;;;;;;;;;;10167717;28;20042;-59
2022/07/29 04:19:06;;;;;;;5.53;3.03;;;;;;;;;;10154558;28;20593;-59
2022/07/29 04:24:04;;;;;;;4.15;3.22;;;;;;;;;;10166084;28;20072;-59
2022/07/29 04:29:03;;;;;;;7.40;3.08;;;;;;;;;;10175500;28;20073;-60
2022/07/29 04:34:03;;;;;;;4.13;3.45;;;;;;;;;;10178286;28;20522;-60
2022/07/29 04:39:01;;;;;;;14.35;5.78;;;;;;;;;;10166385;28;20082;-60
2022/07/29 04:44:04;;;;;;;12.63;8.32;;;;;;;;;;10146504;28;20069;-60
2022/07/29 04:49:10;;;;;;;13.68;6.47;;;;;;;;;;10156952;28;20058;-60
2022/07/29 04:54:09;;;;;;;15.63;5.65;;;;;;;;;;10160536;28;20534;-60
2022/07/29 04:59:07;;;;;;;7.97;3.92;;;;;;;;;;10189272;28;20500;-60
2022/07/29 05:04:05;;;;;;;8.68;4.35;;;;;;;;;;10192394;28;20065;-60
2022/07/29 05:09:05;;;;;;;5.18;3.53;;;;;;;;;;10192391;28;20089;-59
2022/07/29 05:14:03;;;;;;;5.75;3.33;;;;;;;;;;10186923;28;20070;-59
2022/07/29 05:19:01;;;;;;;6.22;2.90;;;;;;;;;;10179667;28;20073;-59
2022/07/29 05:24:00;;;;;;;9.68;3.35;;;;;;;;;;10189065;28;20100;-60
2022/07/29 05:28:59;;;;;;;6.82;3.40;;;;;;;;;;10188598;28;20084;-60
2022/07/29 05:33:58;;;;;;;4.43;3.08;;;;;;;;;;10188937;28;20096;-59
2022/07/29 05:38:56;;;;;;;11.00;3.47;;;;;;;;;;10185301;28;20085;-61
2022/07/29 05:43:54;;;;;;;4.13;3.42;;;;;;;;;;10185439;28;20537;-60
2022/07/29 05:48:54;;;;;;;5.00;3.38;;;;;;;;;;10187307;28;20104;-61
2022/07/29 05:53:54;;;;;;;5.93;3.05;;;;;;;;;;10189171;28;20065;-64
2022/07/29 05:58:53;;;;;;;5.53;3.83;;;;;;;;;;10190960;28;20161;-61
2022/07/29 06:03:51;;;;;;;3.67;2.55;;;;;;;;;;10193051;28;20430;-61
2022/07/29 06:08:51;;;;;;;7.25;2.80;;;;;;;;;;10192388;28;20081;-62
2022/07/29 06:13:49;;;;;;;4.18;3.03;;;;;;;;;;10193059;28;20085;-61
2022/07/29 06:18:50;;;;;;;7.47;2.63;;;;;;;;;;10192595;28;20081;-61
2022/07/29 06:23:49;;;;;;;4.43;2.72;;;;;;;;;;10192042;28;20092;-62
2022/07/29 06:28:48;;;;;;;4.45;2.70;;;;;;;;;;10192052;28;20474;-61
2022/07/29 06:33:47;;;;;;;6.18;3.10;;;;;;;;;;10192720;28;20511;-62
2022/07/29 06:38:45;;;;;;;7.07;2.60;;;;;;;;;;10198328;28;20050;-61
2022/07/29 06:43:51;;;;;;;4.27;2.63;;;;;;;;;;10198779;28;20086;-60
2022/07/29 06:48:52;;;;;;;7.65;3.30;;;;;;;;;;10197892;28;20084;-60
2022/07/29 06:53:51;;;;;;;4.47;2.38;;;;;;;;;;10176937;28;20066;-61
2022/07/29 06:59:01;;;;;;;4.95;3.22;;;;;;;;;;10138314;28;20066;-60
2022/07/29 07:03:59;;;;;;;4.22;2.88;;;;;;;;;;10154192;28;20074;-60
2022/07/29 07:08:57;;;;;;;3.25;2.80;;;;;;;;;;10153146;28;20085;-60
2022/07/29 07:13:56;;;;;;;6.32;3.20;;;;;;;;;;10146127;28;20066;-60
2022/07/29 07:19:02;;;;;;;6.82;2.70;;;;;;;;;;10133882;28;21511;-59
2022/07/29 07:24:00;;;;;;;7.55;2.60;;;;;;;;;;10162480;28;20066;-59
2022/07/29 07:29:00;;;;;;;6.00;3.25;;;;;;;;;;10161793;28;20066;-59
2022/07/29 07:33:58;;;;;;;7.38;4.00;;;;;;;;;;10172526;28;20069;-59
2022/07/29 07:38:58;;;;;;;3.78;2.80;;;;;;;;;;10175640;28;20468;-57
2022/07/29 07:43:56;;;;;;;4.78;2.28;;;;;;;;;;10174205;28;20065;-58
2022/07/29 07:48:55;;;;;;;2.90;2.60;;;;;;;;;;10169519;28;20077;-56
2022/07/29 07:53:53;;;;;;;7.78;2.40;;;;;;;;;;10168596;28;20058;-58
2022/07/29 07:58:53;;;;;;;3.75;2.60;;;;;;;;;;10168810;28;20066;-58
2022/07/29 08:03:51;;;;;;;3.08;2.60;;;;;;;;;;10173615;28;20073;-54
2022/07/29 08:08:50;;;;;;;4.80;2.65;;;;;;;;;;10176179;28;20054;-59
2022/07/29 08:13:49;;;;;;;2.50;2.00;;;;;;;;;;10175171;28;20550;-57
2022/07/29 08:18:48;;;;;;;3.28;2.83;;;;;;;;;;10175393;28;20042;-59
2022/07/29 08:23:49;;;;;;;3.33;2.60;;;;;;;;;;10175695;28;20076;-59
2022/07/29 08:29:00;;;;;;;4.70;2.70;;;;;;;;;;10173408;28;20043;-58
2022/07/29 08:33:59;;;;;;;2.63;2.28;;;;;;;;;;10176131;28;20681;-59
2022/07/29 08:38:58;;;;;;;4.72;2.25;;;;;;;;;;10171928;28;20070;-58
2022/07/29 08:43:56;;;;;;;2.50;2.30;;;;;;;;;;10179498;28;20077;-58
2022/07/29 08:48:56;;;;;;;4.15;2.20;;;;;;;;;;10181467;28;20435;-57
2022/07/29 08:53:55;;;;;;;3.30;2.50;;;;;;;;;;10170986;28;20082;-58
2022/07/29 08:58:54;;;;;;;4.80;2.60;;;;;;;;;;10172138;28;20077;-58
2022/07/29 09:03:56;;;;;;;3.30;3.00;;;;;;;;;;10173393;28;20076;-58
2022/07/29 09:08:59;;;;;;;4.40;2.40;;;;;;;;;;10170365;28;20045;-58
2022/07/29 09:13:57;;;;;;;4.97;2.60;;;;;;;;;;10170489;28;20077;-54
2022/07/29 09:18:56;;;;;;;6.47;2.40;;;;;;;;;;10174472;28;20069;-57
2022/07/29 09:24:02;;;;;;;2.80;2.60;;;;;;;;;;10169885;28;20073;-56
2022/07/29 09:29:01;;;;;;;2.65;2.45;;;;;;;;;;10171329;28;20046;-55
2022/07/29 09:34:00;;;;;;;3.20;2.63;;;;;;;;;;10173311;28;20070;-59
2022/07/29 09:38:59;;;;;;;6.85;2.60;;;;;;;;;;10171575;28;20035;-59
2022/07/29 09:44:01;;;;;;;2.55;2.35;;;;;;;;;;10173236;28;20072;-57
2022/07/29 09:49:09;;;;;;;8.00;2.72;;;;;;;;;;10172044;28;20038;-58
2022/07/29 09:54:23;;;;;;;3.22;2.80;;;;;;;;;;10172231;28;20526;-59
2022/07/29 09:59:26;;;;;;;7.13;2.42;;;;;;;;;;10170964;28;20094;-57
2022/07/29 10:04:24;;;;;;;5.87;3.20;;;;;;;;;;10172533;28;20062;-58
2022/07/29 10:09:23;;;;;;;3.15;2.60;;;;;;;;;;10172399;28;20042;-58
2022/07/29 10:14:23;;;;;;;7.80;3.00;;;;;;;;;;10180480;28;20074;-58
2022/07/29 10:19:21;;;;;;;3.13;2.47;;;;;;;;;;10179214;28;20053;-59
2022/07/29 10:24:20;;;;;;;3.53;3.22;;;;;;;;;;10180485;28;20066;-57
2022/07/29 10:29:18;;;;;;;3.38;2.53;;;;;;;;;;10175600;28;20661;-59
2022/07/29 10:34:24;;;;;;;5.13;3.08;;;;;;;;;;10175766;28;20073;-58
2022/07/29 10:39:28;;;;;;;2.40;2.20;;;;;;;;;;10176080;28;20069;-59
2022/07/29 10:44:42;;;;;;;4.50;3.10;;;;;;;;;;10176468;28;20077;-58
2022/07/29 10:49:55;;;;;;;5.63;2.80;;;;;;;;;;10175280;28;20073;-60
2022/07/29 10:54:55;;;;;;;3.13;2.83;;;;;;;;;;10184228;28;20072;-60
2022/07/29 11:00:11;;;;;;;3.22;2.67;;;;;;;;;;10174210;28;20069;-59
2022/07/29 11:05:17;;;;;;;3.28;2.65;;;;;;;;;;10177639;28;20497;-59
2022/07/29 11:10:23;;;;;;;3.53;2.73;;;;;;;;;;10177416;28;20061;-59
2022/07/29 11:15:30;;;;;;;4.90;2.60;;;;;;;;;;10169995;28;20467;-59
2022/07/29 11:20:35;;;;;;;4.78;2.75;;;;;;;;;;10158037;28;20050;-59
2022/07/29 11:25:35;;;;;;;4.55;2.80;;;;;;;;;;10158699;28;20535;-59
2022/07/29 11:30:50;;;;;;;6.72;3.10;;;;;;;;;;10170780;28;20073;-58
2022/07/29 11:36:07;;;;;;;3.38;3.00;;;;;;;;;;10167125;28;20515;-59
2022/07/29 11:41:24;;;;;;;4.53;2.30;;;;;;;;;;10156197;28;20051;-59
2022/07/29 11:46:41;;;;;;;5.22;2.85;;;;;;;;;;10170698;28;20507;-59
2022/07/29 11:51:42;;;;;;;5.43;3.35;;;;;;;;;;10118523;28;20075;-59
2022/07/29 11:56:46;;;;;;;3.70;2.80;;;;;;;;;;10117996;28;20050;-59
2022/07/29 12:01:52;;;;;;;2.63;2.33;;;;;;;;;;10118905;28;20077;-60
2022/07/29 12:07:15;;;;;;;6.22;3.45;;;;;;;;;;10172163;28;20472;-59
2022/07/29 12:12:16;;;;;;;5.17;3.30;;;;;;;;;;10179890;28;20042;-60
2022/07/29 12:17:26;;;;;;;4.40;2.55;;;;;;;;;;10168406;28;20065;-60
2022/07/29 12:22:29;;;;;;;5.27;2.97;;;;;;;;;;10175903;28;20069;-56
2022/07/29 12:27:28;;;;;;;4.10;2.83;;;;;;;;;;10171303;28;20466;-57
2022/07/29 12:32:32;;;;;;;6.55;2.88;;;;;;;;;;10170513;28;20041;-58
2022/07/29 12:37:31;;;;;;;4.00;2.92;;;;;;;;;;10171582;28;20072;-56
2022/07/29 12:42:40;;;;;;;3.42;2.88;;;;;;;;;;10174816;28;20492;-59
2022/07/29 12:47:52;;;;;;;6.05;3.17;;;;;;;;;;10174951;28;20049;-59
2022/07/29 12:52:51;;;;;;;4.30;2.75;;;;;;;;;;10171735;28;20404;-58
2022/07/29 12:57:52;;;;;;;5.63;3.97;;;;;;;;;;10174097;28;20088;-56
2022/07/29 13:02:55;;;;;;;4.78;3.38;;;;;;;;;;10171069;28;20077;-56
2022/07/29 13:07:55;;;;;;;6.07;3.33;;;;;;;;;;10171822;28;20042;-56
2022/07/29 13:13:02;;;;;;;5.13;3.13;;;;;;;;;;10175567;28;20081;-57
2022/07/29 13:18:01;;;;;;;3.55;3.25;;;;;;;;;;10173572;28;20081;-56
2022/07/29 13:23:01;;;;;;;3.67;3.15;;;;;;;;;;10174151;28;20099;-54
2022/07/29 13:28:00;;;;;;;3.20;2.90;;;;;;;;;;10168055;28;20053;-59
2022/07/29 13:32:58;;;;;;;5.75;3.80;;;;;;;;;;10170251;28;20085;-60
2022/07/29 13:37:56;;;;;;;3.42;2.78;;;;;;;;;;10174691;28;20089;-59
2022/07/29 13:42:56;;;;;;;5.20;2.80;;;;;;;;;;10173219;28;20518;-59
2022/07/29 13:47:54;;;;;;;4.22;3.33;;;;;;;;;;10181287;28;20082;-60
2022/07/29 13:52:53;;;;;;;6.15;5.55;;;;;;;;;;10174399;28;20070;-60
2022/07/29 13:57:51;;;;;;;7.53;3.67;;;;;;;;;;10177905;28;20419;-60
2022/07/29 14:02:50;;;;;;;5.57;3.50;;;;;;;;;;10181527;28;20084;-60
2022/07/29 14:07:49;;;;;;;6.20;2.65;;;;;;;;;;10181104;28;20522;-60
2022/07/29 14:12:47;;;;;;;4.82;3.05;;;;;;;;;;10181070;28;20081;-60
2022/07/29 14:17:45;;;;;;;5.22;4.40;;;;;;;;;;10180538;28;20048;-60
2022/07/29 14:22:45;;;;;;;4.75;3.47;;;;;;;;;;10197116;28;20073;-57
2022/07/29 14:27:44;;;;;;;4.80;2.53;;;;;;;;;;10200295;28;20074;-59
2022/07/29 14:32:42;;;;;;;4.20;3.80;;;;;;;;;;10200972;28;20042;-59
2022/07/29 14:37:41;;;;;;;7.60;4.32;;;;;;;;;;10200317;28;20499;-59
2022/07/29 14:42:41;;;;;;;6.20;5.68;;;;;;;;;;10200743;28;20472;-59
2022/07/29 14:47:40;;;;;;;8.38;4.47;;;;;;;;;;10200535;28;20081;-59
2022/07/29 14:52:38;;;;;;;6.70;4.35;;;;;;;;;;10200263;28;20423;-59
2022/07/29 14:57:36;;;;;;;5.15;4.20;;;;;;;;;;10199226;28;20049;-59
2022/07/29 15:02:36;;;;;;;5.18;3.83;;;;;;;;;;10199598;28;20419;-60
2022/07/29 15:07:54;;;;;;;6.22;4.32;;;;;;;;;;10199870;28;20061;-60
2022/07/29 15:12:52;;;;;;;4.57;4.18;;;;;;;;;;10198526;28;20368;-60
2022/07/29 15:17:52;;;;;;;7.95;4.47;;;;;;;;;;10198814;28;20070;-60
2022/07/29 15:28:07;;;;;;;3.40;2.95;;;;;;;;;;10198587;28;20515;-60
2022/07/29 15:33:08;;;;;;;4.63;3.30;;;;;;;;;;10198208;28;20046;-60
2022/07/29 15:38:07;;;;;;;8.00;3.95;;;;;;;;;;10198776;28;20499;-59
2022/07/29 15:43:06;;;;;;;3.78;3.47;;;;;;;;;;10197015;28;20073;-60
2022/07/29 15:48:05;;;;;;;9.43;3.83;;;;;;;;;;10198364;28;20056;-61
2022/07/29 15:53:05;;;;;;;6.07;4.47;;;;;;;;;;10198088;28;20046;-60
2022/07/29 15:58:03;;;;;;;5.47;3.95;;;;;;;;;;10197436;28;20053;-59
2022/07/29 16:03:01;;;;;;;4.18;3.65;;;;;;;;;;10197731;28;20081;-60
2022/07/29 16:08:00;;;;;;;4.68;4.25;;;;;;;;;;10197775;28;20052;-59
2022/07/29 16:12:59;;;;;;;5.82;4.30;;;;;;;;;;10196995;28;20084;-59
2022/07/29 16:17:58;;;;;;;5.72;4.82;;;;;;;;;;10196767;28;20050;-59
2022/07/29 16:22:56;;;;;;;4.97;4.18;;;;;;;;;;10195048;28;20069;-58
2022/07/29 16:27:54;;;;;;;8.07;5.95;;;;;;;;;;10196393;28;20042;-59
2022/07/29 16:32:58;;;;;;;5.57;4.90;;;;;;;;;;10197150;28;20042;-59
2022/07/29 16:37:56;;;;;;;5.53;5.03;;;;;;;;;;10196394;28;20077;-59
2022/07/29 16:42:55;;;;;;;6.65;5.22;;;;;;;;;;10196359;28;20050;-59
2022/07/29 16:47:54;;;;;;;6.72;5.90;;;;;;;;;;10196479;28;20081;-59
2022/07/29 16:52:59;;;;;;;7.40;6.70;;;;;;;;;;10194839;28;20046;-59
2022/07/29 16:57:58;;;;;;;11.60;6.63;;;;;;;;;;10195923;28;20046;-59
2022/07/29 17:02:56;;;;;;;10.05;8.25;;;;;;;;;;10195998;28;20049;-59
2022/07/29 17:07:56;;;;;;;17.50;13.55;;;;;;;;;;10194295;28;20081;-59
2022/07/29 17:12:57;;;;;;;21.75;15.02;;;;;;;;;;10195720;28;20069;-59
2022/07/29 17:17:56;;;;;;;21.73;15.70;;;;;;;;;;10194998;28;20053;-60
2022/07/29 17:22:54;;;;;;;17.73;11.73;;;;;;;;;;10194961;28;20046;-59
2022/07/29 17:27:54;;;;;;;15.32;11.82;;;;;;;;;;10194893;28;20077;-58
2022/07/29 17:32:59;;;;;;;16.60;10.77;;;;;;;;;;10194582;28;20042;-59
2022/07/29 17:37:57;;;;;;;13.15;8.88;;;;;;;;;;10194560;28;20080;-59
2022/07/29 17:42:56;;;;;;;12.63;9.60;;;;;;;;;;10195035;28;20050;-59
2022/07/29 17:47:54;;;;;;;12.05;8.23;;;;;;;;;;10194382;28;20077;-59
2022/07/29 17:52:54;;;;;;;7.72;7.03;;;;;;;;;;10194995;28;20333;-59
2022/07/29 17:57:52;;;;;;;8.18;7.38;;;;;;;;;;10194305;28;20042;-58
2022/07/29 18:02:56;;;;;;;12.27;6.95;;;;;;;;;;10194383;28;20050;-58
2022/07/29 18:07:56;;;;;;;8.18;5.97;;;;;;;;;;10194151;28;20104;-58
2022/07/29 18:12:55;;;;;;;6.45;5.45;;;;;;;;;;10192269;28;20050;-59
2022/07/29 18:17:53;;;;;;;9.05;4.53;;;;;;;;;;10193769;28;20053;-58
2022/07/29 18:22:56;;;;;;;4.35;3.97;;;;;;;;;;10194005;28;20344;-58
2022/07/29 18:27:55;;;;;;;11.85;4.40;;;;;;;;;;10193618;28;20107;-59
2022/07/29 18:32:57;;;;;;;4.13;3.73;;;;;;;;;;10196083;28;20050;-59
2022/07/29 18:38:17;;;;;;;9.10;3.90;;;;;;;;;;10200909;28;20077;-58
2022/07/29 18:43:16;;;;;;;5.15;3.50;;;;;;;;;;10200398;28;20481;-58
2022/07/29 18:48:14;;;;;;;6.85;4.10;;;;;;;;;;10200225;28;20081;-58
2022/07/29 18:53:12;;;;;;;12.05;4.15;;;;;;;;;;10200226;28;20050;-58
2022/07/29 18:58:12;;;;;;;9.27;4.20;;;;;;;;;;10200111;28;20060;-58
2022/07/29 19:03:10;;;;;;;10.95;4.20;;;;;;;;;;10199874;28;20500;-58
2022/07/29 19:08:09;;;;;;;10.05;3.30;;;;;;;;;;10199794;28;20076;-58
2022/07/29 19:13:07;;;;;;;5.13;3.55;;;;;;;;;;10199062;28;20041;-59
2022/07/29 19:18:12;;;;;;;7.82;3.20;;;;;;;;;;10199497;28;20089;-58
2022/07/29 19:23:10;;;;;;;5.47;3.10;;;;;;;;;;10197733;28;20201;-59
2022/07/29 19:28:09;;;;;;;4.85;3.03;;;;;;;;;;10199070;28;20092;-59
2022/07/29 19:33:07;;;;;;;6.07;2.83;;;;;;;;;;10198861;28;20510;-60
2022/07/29 19:38:07;;;;;;;7.22;3.33;;;;;;;;;;10198930;28;20244;-59
2022/07/29 19:43:06;;;;;;;8.32;3.33;;;;;;;;;;10197656;28;20070;-59
2022/07/29 19:48:24;;;;;;;4.93;2.88;;;;;;;;;;10198232;28;20096;-59
2022/07/29 19:53:24;;;;;;;5.18;2.83;;;;;;;;;;10198321;28;20042;-59
2022/07/29 19:58:22;;;;;;;6.40;3.20;;;;;;;;;;10197199;28;20042;-59
2022/07/29 20:03:24;;;;;;;5.28;3.63;;;;;;;;;;10198302;28;20046;-59
2022/07/29 20:08:23;;;;;;;5.65;3.17;;;;;;;;;;10197749;28;20486;-59
2022/07/29 20:13:22;;;;;;;6.28;2.60;;;;;;;;;;10197501;28;20045;-59
2022/07/29 20:18:20;;;;;;;2.95;2.63;;;;;;;;;;10195446;28;20543;-60
2022/07/29 20:23:21;;;;;;;4.32;2.58;;;;;;;;;;10197094;28;20138;-59
2022/07/29 20:28:20;;;;;;;5.22;2.95;;;;;;;;;;10196823;28;20076;-59
2022/07/29 20:33:19;;;;;;;4.07;3.03;;;;;;;;;;10196140;28;20052;-59
2022/07/29 20:38:17;;;;;;;5.13;2.83;;;;;;;;;;10196589;28;20050;-59
2022/07/29 20:43:15;;;;;;;3.28;2.97;;;;;;;;;;10196556;28;20053;-59
2022/07/29 20:48:15;;;;;;;7.43;3.08;;;;;;;;;;10195299;28;20085;-59
2022/07/29 20:53:13;;;;;;;6.93;2.95;;;;;;;;;;10195114;28;20038;-59
2022/07/29 20:58:11;;;;;;;8.80;3.17;;;;;;;;;;10194973;28;20447;-59
2022/07/29 21:03:10;;;;;;;3.03;2.70;;;;;;;;;;10195522;28;20085;-59
2022/07/29 21:08:09;;;;;;;5.35;2.88;;;;;;;;;;10194402;28;20049;-59
2022/07/29 21:13:08;;;;;;;6.78;2.80;;;;;;;;;;10196108;28;20054;-59
2022/07/29 21:18:15;;;;;;;6.22;2.83;;;;;;;;;;10195087;28;20049;-59
2022/07/29 21:23:14;;;;;;;4.88;2.80;;;;;;;;;;10194195;28;20042;-59
2022/07/29 21:28:29;;;;;;;6.70;3.03;;;;;;;;;;10194661;28;20066;-59
2022/07/29 21:33:28;;;;;;;5.30;3.25;;;;;;;;;;10193436;28;20089;-59
2022/07/29 21:38:28;;;;;;;3.53;2.95;;;;;;;;;;10194051;28;20053;-58
2022/07/29 21:43:27;;;;;;;7.97;3.22;;;;;;;;;;10193792;28;20045;-59
2022/07/29 21:48:26;;;;;;;3.88;2.83;;;;;;;;;;10193555;28;20077;-59
2022/07/29 21:53:24;;;;;;;6.50;2.97;;;;;;;;;;10194275;28;20472;-57
2022/07/29 21:58:25;;;;;;;5.20;3.22;;;;;;;;;;10193305;28;20078;-59
2022/07/29 22:03:23;;;;;;;5.00;3.47;;;;;;;;;;10194051;28;20057;-59
2022/07/29 22:08:22;;;;;;;4.68;2.70;;;;;;;;;;10200555;28;20148;-59
2022/07/29 22:13:20;;;;;;;3.78;3.17;;;;;;;;;;10202045;28;20096;-59
2022/07/29 22:18:20;;;;;;;9.43;3.60;;;;;;;;;;10202111;28;20085;-59
2022/07/29 22:23:18;;;;;;;5.35;3.40;;;;;;;;;;10201898;28;20076;-59
2022/07/29 22:28:17;;;;;;;7.30;3.10;;;;;;;;;;10201347;28;20077;-58
2022/07/29 22:33:15;;;;;;;8.02;3.33;;;;;;;;;;10201800;28;20046;-58
2022/07/29 22:38:16;;;;;;;5.97;3.88;;;;;;;;;;10200972;28;20048;-59
2022/07/29 22:43:14;;;;;;;8.13;3.90;;;;;;;;;;10200718;28;20046;-58
2022/07/29 22:48:13;;;;;;;4.68;3.53;;;;;;;;;;10200696;28;20073;-57
2022/07/29 22:53:11;;;;;;;5.75;3.50;;;;;;;;;;10200234;28;20045;-59
2022/07/29 22:58:11;;;;;;;6.35;3.30;;;;;;;;;;10200163;28;20072;-59
2022/07/29 23:03:09;;;;;;;14.40;3.20;;;;;;;;;;10200314;28;20046;-60
2022/07/29 23:08:07;;;;;;;5.78;3.40;;;;;;;;;;10199275;28;20085;-60
2022/07/29 23:13:06;;;;;;;5.70;3.70;;;;;;;;;;10199839;28;20400;-60
2022/07/29 23:18:06;;;;;;;8.48;3.42;;;;;;;;;;10198208;28;20046;-59
2022/07/29 23:23:04;;;;;;;6.65;4.53;;;;;;;;;;10199395;28;20045;-59
2022/07/29 23:28:02;;;;;;;4.93;3.80;;;;;;;;;;10198879;28;20265;-59
2022/07/29 23:33:01;;;;;;;5.63;3.38;;;;;;;;;;10199162;28;20483;-59
2022/07/29 23:38:01;;;;;;;8.95;4.47;;;;;;;;;;10198828;28;20094;-59
2022/07/29 23:42:59;;;;;;;7.30;3.80;;;;;;;;;;10198797;28;20084;-58
2022/07/29 23:47:57;;;;;;;14.45;4.90;;;;;;;;;;10198330;28;20085;-58
2022/07/29 23:52:55;;;;;;;10.88;4.25;;;;;;;;;;10197862;28;20084;-58
2022/07/29 23:57:56;;;;;;;11.07;3.70;;;;;;;;;;10198108;28;20041;-58
